Time;durP1;ratioP1;P1;durP2;ratioP2;P2;SDS_P1;SDS_P2;PMS_P1;PMS_P2;Temp;Humidity;BMP_temperature;BMP_pressure;BME280_temperature;BME280_humidity;BME280_pressure;Samples;Min_cycle;Max_cycle;Signal;HPM_P1;HPM_P2
2022/01/19 00:00:29;;;;;;;49.47;19.42;;;4.10;99.90;;;;;;5012205;28;20050;-77
2022/01/19 00:02:55;;;;;;;55.10;21.00;;;4.10;99.90;;;;;;4995534;28;20061;-78
2022/01/19 00:05:21;;;;;;;51.50;21.50;;;4.10;99.90;;;;;;5030060;28;20045;-78
2022/01/19 00:07:46;;;;;;;56.20;22.63;;;4.10;99.90;;;;;;5029805;28;20048;-78
2022/01/19 00:10:16;;;;;;;51.20;21.48;;;4.00;99.90;;;;;;5029341;28;20057;-78
2022/01/19 00:12:43;;;;;;;57.40;22.73;;;4.00;99.90;;;;;;5029926;28;20056;-80
2022/01/19 00:15:10;;;;;;;50.40;20.80;;;4.00;99.90;;;;;;4995330;28;20088;-79
2022/01/19 00:17:36;;;;;;;48.25;19.83;;;4.00;99.90;;;;;;5029539;28;20112;-81
2022/01/19 00:20:03;;;;;;;54.85;21.40;;;4.10;99.90;;;;;;5029423;28;20427;-80
2022/01/19 00:22:28;;;;;;;58.97;21.30;;;4.00;99.90;;;;;;5012145;28;20081;-78
2022/01/19 00:24:54;;;;;;;54.58;22.20;;;4.00;99.90;;;;;;5029190;28;20104;-78
2022/01/19 00:27:20;;;;;;;53.80;22.55;;;4.00;99.90;;;;;;5029486;28;20117;-84
2022/01/19 00:29:45;;;;;;;50.13;20.52;;;4.00;99.90;;;;;;5011544;28;20132;-79
2022/01/19 00:32:11;;;;;;;59.17;22.83;;;4.00;99.90;;;;;;5029348;28;20048;-81
2022/01/19 00:34:36;;;;;;;64.80;25.10;;;4.60;99.90;;;;;;5022414;28;20046;-79
2022/01/19 00:37:02;;;;;;;58.75;23.27;;;4.00;99.90;;;;;;5033601;28;20045;-78
2022/01/19 00:39:31;;;;;;;54.53;24.42;;;4.00;99.90;;;;;;5032841;28;20128;-78
2022/01/19 00:41:57;;;;;;;61.45;24.52;;;4.00;99.90;;;;;;4999302;28;20077;-78
2022/01/19 00:44:23;;;;;;;53.65;23.10;;;4.00;99.90;;;;;;5015625;28;20057;-77
2022/01/19 00:46:49;;;;;;;68.10;24.63;;;4.00;99.90;;;;;;5025068;28;20048;-77
2022/01/19 00:49:14;;;;;;;62.42;25.00;;;3.90;99.90;;;;;;5015831;28;20058;-78
2022/01/19 00:51:40;;;;;;;67.10;24.42;;;4.00;99.90;;;;;;5032713;28;20056;-78
2022/01/19 00:54:06;;;;;;;65.57;24.88;;;4.40;99.90;;;;;;5032880;28;20060;-82
2022/01/19 00:56:34;;;;;;;58.78;23.25;;;3.90;99.90;;;;;;5032854;28;20065;-81
2022/01/19 00:59:00;;;;;;;58.05;25.38;;;3.90;99.90;;;;;;5011916;28;20489;-80
2022/01/19 01:01:26;;;;;;;65.93;25.65;;;3.90;99.90;;;;;;5012819;28;20104;-76
2022/01/19 01:03:52;;;;;;;50.15;19.90;;;3.90;99.90;;;;;;5012911;28;20046;-79
2022/01/19 01:06:19;;;;;;;67.78;24.75;;;3.90;99.90;;;;;;5012752;28;20049;-80
2022/01/19 01:08:45;;;;;;;71.70;26.15;;;3.90;99.90;;;;;;5011877;28;20054;-78
2022/01/19 01:11:10;;;;;;;70.95;27.05;;;4.20;99.90;;;;;;5013041;28;20493;-78
2022/01/19 01:16:33;;;;;;;71.18;27.13;;;3.80;99.90;;;;;;5005379;28;20053;-77
2022/01/19 01:19:00;;;;;;;70.82;28.33;;;3.80;99.90;;;;;;5012479;28;20045;-78
2022/01/19 01:21:25;;;;;;;68.68;27.48;;;3.80;99.90;;;;;;5011200;28;20054;-76
2022/01/19 01:23:51;;;;;;;77.20;27.00;;;3.80;99.90;;;;;;5011210;28;20668;-77
2022/01/19 01:26:17;;;;;;;73.72;28.90;;;3.80;99.90;;;;;;5011071;28;20050;-80
2022/01/19 01:28:42;;;;;;;71.45;27.55;;;3.80;99.90;;;;;;5012613;28;20053;-77
2022/01/19 01:31:09;;;;;;;65.03;25.27;;;3.80;99.90;;;;;;5012457;28;20042;-80
2022/01/19 01:33:36;;;;;;;84.55;28.38;;;3.80;99.90;;;;;;5011064;28;20045;-78
2022/01/19 01:36:02;;;;;;;89.63;28.95;;;3.80;99.90;;;;;;5012730;28;20076;-78
2022/01/19 01:38:28;;;;;;;81.10;27.58;;;3.80;99.90;;;;;;5011028;28;20046;-77
2022/01/19 01:40:54;;;;;;;85.75;29.23;;;3.80;99.90;;;;;;5012703;28;20100;-77
2022/01/19 01:43:19;;;;;;;71.88;27.90;;;3.80;99.90;;;;;;5010824;28;20050;-77
2022/01/19 01:45:49;;;;;;;78.95;28.30;;;3.80;99.90;;;;;;5010633;28;20041;-78
2022/01/19 01:48:18;;;;;;;79.20;28.33;;;3.80;99.90;;;;;;5011822;28;20041;-77
2022/01/19 01:53:31;;;;;;;81.68;28.00;;;3.80;99.90;;;;;;5012281;28;20061;-81
2022/01/19 01:56:09;;;;;;;89.65;29.33;;;3.80;99.90;;;;;;5012345;28;20067;-77
2022/01/19 01:58:38;;;;;;;82.40;28.92;;;3.80;99.90;;;;;;5017152;28;20119;-77
2022/01/19 02:01:05;;;;;;;91.28;28.88;;;4.40;99.90;;;;;;5010382;28;20060;-77
2022/01/19 02:03:37;;;;;;;93.60;30.35;;;3.80;99.90;;;;;;5031178;28;20060;-79
2022/01/19 02:08:52;;;;;;;98.85;30.52;;;3.80;99.90;;;;;;5014379;28;20052;-78
2022/01/19 02:15:47;;;;;;;92.65;30.48;;;3.90;99.90;;;;;;5024271;28;20575;-81
2022/01/19 02:23:03;;;;;;;105.80;34.45;;;3.90;99.90;;;;;;5014000;28;20053;-80
2022/01/19 02:25:35;;;;;;;85.13;32.67;;;3.90;99.90;;;;;;5014268;28;20451;-79
2022/01/19 02:41:39;;;;;;;90.97;33.63;;;4.00;99.90;;;;;;4950837;28;20063;-78
2022/01/19 02:44:09;;;;;;;110.93;30.50;;;4.00;99.90;;;;;;4950997;28;20314;-81
2022/01/19 02:49:20;;;;;;;95.05;33.60;;;4.00;99.90;;;;;;4950884;28;20134;-77
2022/01/19 02:51:52;;;;;;;106.18;34.38;;;4.00;99.90;;;;;;4950297;28;20066;-77
2022/01/19 02:54:22;;;;;;;97.50;31.70;;;4.00;99.90;;;;;;4934826;28;20051;-77
2022/01/19 02:56:51;;;;;;;111.80;32.58;;;4.00;99.90;;;;;;4950375;28;20047;-78
2022/01/19 03:09:41;;;;;;;90.28;28.73;;;3.90;99.90;;;;;;4945959;29;20057;-75
2022/01/19 03:12:08;;;;;;;105.95;30.55;;;3.90;99.90;;;;;;4987894;28;20053;-75
2022/01/19 03:14:34;;;;;;;94.07;29.42;;;3.90;99.90;;;;;;5010195;28;20049;-77
2022/01/19 03:16:59;;;;;;;112.53;31.90;;;3.90;99.90;;;;;;4992728;28;20504;-77
2022/01/19 03:19:28;;;;;;;117.20;32.65;;;3.90;99.90;;;;;;5010808;28;20491;-77
2022/01/19 03:21:53;;;;;;;129.38;33.95;;;3.90;99.90;;;;;;4993685;28;20141;-78
2022/01/19 03:24:19;;;;;;;104.63;27.77;;;3.90;99.90;;;;;;4992334;28;20132;-79
2022/01/19 03:26:45;;;;;;;94.10;25.48;;;3.90;99.90;;;;;;4992947;28;20120;-78
2022/01/19 03:29:11;;;;;;;91.43;28.05;;;3.90;99.90;;;;;;5008945;28;20057;-77
2022/01/19 03:31:36;;;;;;;93.63;26.30;;;3.90;99.90;;;;;;5010361;28;20042;-76
2022/01/19 03:34:03;;;;;;;97.15;27.52;;;3.80;99.90;;;;;;4992661;28;20512;-79
2022/01/19 03:36:29;;;;;;;102.57;27.13;;;3.80;99.90;;;;;;4993595;28;20054;-78
2022/01/19 03:38:55;;;;;;;86.95;24.48;;;3.80;99.90;;;;;;4992907;28;20049;-79
2022/01/19 03:41:20;;;;;;;82.15;24.27;;;3.80;99.90;;;;;;4992906;28;20128;-78
2022/01/19 03:43:46;;;;;;;72.00;21.20;;;3.80;99.90;;;;;;5010027;28;20054;-79
2022/01/19 03:46:16;;;;;;;81.90;23.55;;;3.70;99.90;;;;;;4992359;28;20042;-80
2022/01/19 03:48:58;;;;;;;78.38;22.80;;;3.70;99.90;;;;;;5010206;28;20042;-78
2022/01/19 03:51:24;;;;;;;87.05;24.33;;;3.70;99.90;;;;;;4993001;28;20133;-79
2022/01/19 03:53:50;;;;;;;101.70;25.65;;;3.70;99.90;;;;;;5009974;28;20095;-79
2022/01/19 03:56:17;;;;;;;101.45;26.85;;;3.70;99.90;;;;;;5010032;28;20050;-78
2022/01/19 03:58:43;;;;;;;97.88;25.48;;;3.60;99.90;;;;;;5014824;28;20115;-79
2022/01/19 04:01:09;;;;;;;89.30;27.25;;;3.70;99.90;;;;;;5012349;28;20057;-78
2022/01/19 04:06:18;;;;;;;76.72;23.13;;;3.60;99.90;;;;;;5012577;28;20060;-77
2022/01/19 04:08:44;;;;;;;78.25;24.88;;;3.60;99.90;;;;;;5022908;28;20124;-78
2022/01/19 04:11:09;;;;;;;80.28;25.58;;;3.60;99.90;;;;;;5015363;28;20049;-78
2022/01/19 04:16:19;;;;;;;81.63;23.20;;;3.60;99.90;;;;;;5015852;28;20132;-78
2022/01/19 04:18:45;;;;;;;108.00;28.02;;;3.60;99.90;;;;;;5033737;28;20108;-78
2022/01/19 04:21:10;;;;;;;88.80;25.52;;;3.60;99.90;;;;;;5033698;28;20489;-80
2022/01/19 04:23:36;;;;;;;106.18;26.98;;;3.60;99.90;;;;;;5033002;28;20763;-78
2022/01/19 04:26:03;;;;;;;87.50;25.77;;;3.50;99.90;;;;;;5015843;28;20042;-79
2022/01/19 04:28:29;;;;;;;93.65;25.77;;;4.40;99.90;;;;;;5033448;28;20060;-77
2022/01/19 04:30:54;;;;;;;84.57;26.08;;;3.80;99.90;;;;;;5016313;28;20045;-78
2022/01/19 04:33:24;;;;;;;81.45;26.67;;;3.50;99.90;;;;;;5033109;28;20548;-78
2022/01/19 04:35:52;;;;;;;73.47;23.73;;;3.50;99.90;;;;;;5016190;28;20038;-78
2022/01/19 04:39:07;;;;;;;74.35;24.60;;;3.60;99.90;;;;;;5016032;28;20053;-78
2022/01/19 05:01:37;;;;;;;58.17;21.35;;;4.00;99.90;;;;;;4952789;28;20062;-79
2022/01/19 05:05:46;;;;;;;68.55;23.88;;;3.30;99.90;;;;;;4952440;28;20148;-78
2022/01/19 05:08:46;;;;;;;71.57;24.25;;;3.30;99.90;;;;;;4920535;29;20075;-79
2022/01/19 05:13:50;;;;;;;58.65;23.40;;;3.30;99.90;;;;;;4935887;28;20055;-81
2022/01/19 05:16:16;;;;;;;64.13;24.73;;;3.30;99.90;;;;;;4952384;28;20043;-83
2022/01/19 05:18:41;;;;;;;60.67;23.67;;;3.30;99.90;;;;;;4935742;28;20495;-77
2022/01/19 05:21:07;;;;;;;68.60;24.05;;;3.30;99.90;;;;;;5017260;28;20056;-78
2022/01/19 05:23:33;;;;;;;74.47;27.42;;;3.30;99.90;;;;;;4997758;28;20073;-77
2022/01/19 05:25:58;;;;;;;66.75;24.67;;;3.30;99.90;;;;;;5032209;28;21409;-79
2022/01/19 05:28:24;;;;;;;67.15;26.20;;;3.30;99.90;;;;;;4998400;28;20049;-78
2022/01/19 05:30:49;;;;;;;66.13;25.55;;;3.30;99.90;;;;;;5032307;28;20081;-78
2022/01/19 05:33:15;;;;;;;66.82;26.13;;;3.30;99.90;;;;;;5032227;28;20053;-79
2022/01/19 05:35:41;;;;;;;64.43;24.77;;;3.30;99.90;;;;;;5015113;28;20038;-77
2022/01/19 05:38:07;;;;;;;66.75;26.13;;;3.30;99.90;;;;;;5032632;28;20041;-80
2022/01/19 05:40:32;;;;;;;70.65;26.45;;;3.30;99.90;;;;;;5032275;28;20049;-83
2022/01/19 05:42:58;;;;;;;71.05;26.17;;;3.30;99.90;;;;;;5014215;28;20041;-76
2022/01/19 05:45:24;;;;;;;69.95;26.90;;;3.30;99.90;;;;;;5031661;28;20037;-78
2022/01/19 05:47:49;;;;;;;67.80;25.10;;;3.30;99.90;;;;;;4997854;28;20049;-78
2022/01/19 05:50:15;;;;;;;67.55;27.85;;;3.30;99.90;;;;;;5014662;28;20120;-80
2022/01/19 05:52:41;;;;;;;71.78;26.67;;;3.30;99.90;;;;;;5031794;28;20443;-77
2022/01/19 05:55:07;;;;;;;75.25;26.83;;;3.30;99.90;;;;;;5031525;28;20060;-80
2022/01/19 05:57:33;;;;;;;66.10;26.13;;;3.30;99.90;;;;;;5014511;28;20532;-80
2022/01/19 05:59:59;;;;;;;69.47;26.30;;;3.30;99.90;;;;;;5013418;28;20057;-80
2022/01/19 06:02:25;;;;;;;69.50;26.02;;;3.40;99.90;;;;;;5031106;28;20057;-77
2022/01/19 06:04:50;;;;;;;78.53;27.92;;;3.80;99.90;;;;;;5031787;28;20439;-78
2022/01/19 06:07:16;;;;;;;69.60;25.92;;;3.30;99.90;;;;;;5031296;28;20060;-78
2022/01/19 06:12:13;;;;;;;68.03;26.65;;;3.40;99.90;;;;;;5031035;28;20053;-78
2022/01/19 06:14:42;;;;;;;68.03;26.38;;;3.30;99.90;;;;;;5031496;28;20374;-78
2022/01/19 06:17:10;;;;;;;71.85;25.45;;;3.30;99.90;;;;;;5031140;28;20049;-78
2022/01/19 06:19:36;;;;;;;56.38;25.85;;;3.40;99.90;;;;;;5031476;28;20477;-78
2022/01/19 06:22:02;;;;;;;75.30;26.90;;;3.40;99.90;;;;;;5031071;28;20141;-78
2022/01/19 06:24:27;;;;;;;60.38;25.15;;;3.40;99.90;;;;;;5031651;28;20061;-78
2022/01/19 06:26:54;;;;;;;73.57;25.25;;;3.40;99.90;;;;;;5031359;28;20103;-77
2022/01/19 06:29:21;;;;;;;68.07;25.92;;;3.40;99.90;;;;;;5030877;28;20087;-80
2022/01/19 06:31:48;;;;;;;70.85;27.70;;;3.30;99.90;;;;;;5012911;28;20088;-77
2022/01/19 06:34:15;;;;;;;63.92;26.45;;;3.30;99.90;;;;;;5030391;28;20053;-77
2022/01/19 06:36:40;;;;;;;59.65;25.00;;;3.40;99.90;;;;;;5031020;28;20045;-77
2022/01/19 06:39:06;;;;;;;62.47;27.63;;;3.40;99.90;;;;;;5013459;28;20051;-77
2022/01/19 06:41:32;;;;;;;68.07;27.30;;;3.30;99.90;;;;;;5030969;28;20038;-79
2022/01/19 06:43:58;;;;;;;70.65;26.40;;;3.40;99.90;;;;;;5030987;28;20050;-81
2022/01/19 06:46:24;;;;;;;65.63;26.45;;;3.30;99.90;;;;;;4997051;28;21512;-78
2022/01/19 06:48:52;;;;;;;63.05;25.52;;;3.30;99.90;;;;;;5030991;28;20054;-78
2022/01/19 06:51:18;;;;;;;62.38;26.35;;;3.30;99.90;;;;;;5013096;28;20037;-77
2022/01/19 06:53:44;;;;;;;56.75;26.42;;;3.30;99.90;;;;;;5030793;28;20036;-76
2022/01/19 06:56:10;;;;;;;67.88;25.25;;;3.30;99.90;;;;;;5030675;28;20038;-76
2022/01/19 06:58:36;;;;;;;64.88;26.33;;;3.30;99.90;;;;;;5012556;28;20057;-76
2022/01/19 07:01:02;;;;;;;65.03;25.73;;;3.40;99.90;;;;;;5030906;28;20052;-77
2022/01/19 07:03:28;;;;;;;69.57;26.50;;;3.30;99.90;;;;;;5029819;28;20063;-77
2022/01/19 07:05:54;;;;;;;60.38;23.85;;;3.30;99.90;;;;;;5013550;28;20124;-77
2022/01/19 07:08:20;;;;;;;59.45;25.85;;;4.10;99.90;;;;;;5030448;28;20120;-78
2022/01/19 07:10:45;;;;;;;69.60;27.30;;;3.40;99.90;;;;;;5013453;28;20042;-77
2022/01/19 07:13:11;;;;;;;66.80;25.85;;;3.40;99.90;;;;;;5012776;28;20064;-77
2022/01/19 07:15:40;;;;;;;63.75;26.67;;;3.30;99.90;;;;;;5030315;28;20042;-78
2022/01/19 07:18:05;;;;;;;60.80;25.15;;;3.40;99.90;;;;;;5030003;28;20045;-77
2022/01/19 07:20:32;;;;;;;58.90;25.30;;;3.40;99.90;;;;;;5012669;28;20046;-77
2022/01/19 07:23:01;;;;;;;68.45;26.60;;;3.30;99.90;;;;;;4996615;28;20041;-76
2022/01/19 07:25:30;;;;;;;56.90;23.83;;;3.30;99.90;;;;;;5030223;28;20049;-77
2022/01/19 07:27:56;;;;;;;58.05;25.35;;;3.30;99.90;;;;;;5030493;28;20044;-77
2022/01/19 07:30:22;;;;;;;62.25;25.13;;;3.30;99.90;;;;;;5030062;28;20091;-78
2022/01/19 07:32:49;;;;;;;69.90;26.92;;;3.30;99.90;;;;;;5022239;28;20045;-78
2022/01/19 07:35:17;;;;;;;57.50;25.42;;;3.30;99.90;;;;;;5029965;28;20037;-80
2022/01/19 07:37:43;;;;;;;59.38;25.88;;;3.40;99.90;;;;;;5030162;28;20057;-82
2022/01/19 07:40:09;;;;;;;68.10;26.88;;;3.30;99.90;;;;;;5012801;28;20041;-78
2022/01/19 07:42:35;;;;;;;65.72;25.98;;;3.30;99.90;;;;;;5045328;28;20132;-77
2022/01/19 07:45:03;;;;;;;57.90;24.83;;;3.30;99.90;;;;;;5029901;28;20117;-86
2022/01/19 07:47:28;;;;;;;66.72;26.65;;;3.30;99.90;;;;;;5029921;28;20200;-78
2022/01/19 07:49:57;;;;;;;59.63;26.13;;;3.30;99.90;;;;;;5029840;28;20120;-85
2022/01/19 07:52:23;;;;;;;66.28;26.20;;;3.40;99.90;;;;;;5030421;28;20041;-82
2022/01/19 07:54:50;;;;;;;67.75;26.55;;;3.30;99.90;;;;;;5027155;28;20037;-83
2022/01/19 07:57:16;;;;;;;65.65;26.67;;;3.40;99.90;;;;;;5029280;28;20041;-80
2022/01/19 07:59:42;;;;;;;63.15;26.80;;;3.30;99.90;;;;;;5030997;28;20132;-79
2022/01/19 08:02:07;;;;;;;61.75;26.45;;;3.40;99.90;;;;;;5029938;28;20226;-81
2022/01/19 08:04:33;;;;;;;77.90;29.00;;;3.40;99.90;;;;;;5022143;28;20067;-79
2022/01/19 08:06:59;;;;;;;68.47;28.48;;;3.40;99.90;;;;;;5012600;28;20045;-83
2022/01/19 08:09:27;;;;;;;67.45;25.98;;;3.40;99.90;;;;;;5029701;28;20049;-80
2022/01/19 08:11:53;;;;;;;69.43;27.30;;;3.40;99.90;;;;;;5030222;28;20057;-80
2022/01/19 08:14:20;;;;;;;66.32;26.95;;;3.50;99.90;;;;;;5029752;28;20046;-81
2022/01/19 08:16:45;;;;;;;78.43;29.70;;;3.50;99.90;;;;;;5030236;28;20041;-79
2022/01/19 08:19:11;;;;;;;62.95;27.45;;;4.10;99.90;;;;;;5030203;28;20034;-80
2022/01/19 08:21:37;;;;;;;59.40;26.33;;;3.50;99.90;;;;;;5012273;28;20037;-85
2022/01/19 08:24:03;;;;;;;66.25;26.17;;;3.60;99.90;;;;;;5030133;28;20099;-83
2022/01/19 08:26:29;;;;;;;72.43;27.63;;;3.60;99.90;;;;;;5030028;28;20047;-82
2022/01/19 08:28:54;;;;;;;71.57;29.40;;;3.60;99.90;;;;;;5030912;28;20057;-85
2022/01/19 08:31:20;;;;;;;66.25;28.70;;;3.60;99.90;;;;;;5030645;28;20091;-79
2022/01/19 08:33:46;;;;;;;69.50;26.35;;;3.60;99.90;;;;;;5012848;28;20045;-87
2022/01/19 08:36:11;;;;;;;62.17;26.45;;;3.70;99.90;;;;;;4995407;28;20054;-87
2022/01/19 08:38:39;;;;;;;70.10;29.05;;;3.70;99.90;;;;;;5030490;28;20048;-87
2022/01/19 08:41:04;;;;;;;72.97;28.88;;;3.70;99.90;;;;;;5030557;28;20112;-79
2022/01/19 08:43:31;;;;;;;67.88;26.27;;;3.70;99.90;;;;;;5030944;28;20065;-83
2022/01/19 08:45:57;;;;;;;59.92;26.95;;;3.70;99.90;;;;;;5011963;28;20056;-87
2022/01/19 08:48:23;;;;;;;69.47;30.30;;;3.70;99.90;;;;;;5029448;28;20037;-89
2022/01/19 08:50:49;;;;;;;73.18;30.70;;;3.80;99.90;;;;;;5029784;28;20516;-84
2022/01/19 08:53:15;;;;;;;74.75;31.02;;;3.80;99.90;;;;;;5030119;28;20052;-79
2022/01/19 08:55:40;;;;;;;74.25;32.17;;;3.80;99.90;;;;;;5031375;28;20072;-84
2022/01/19 08:58:07;;;;;;;73.45;30.02;;;3.90;99.90;;;;;;5016515;28;20065;-89
2022/01/19 09:00:33;;;;;;;73.20;29.08;;;3.90;99.90;;;;;;5037036;28;20399;-85
2022/01/19 09:02:59;;;;;;;69.97;29.95;;;3.90;99.90;;;;;;5043865;28;20057;-79
2022/01/19 09:05:25;;;;;;;69.38;29.63;;;3.90;99.90;;;;;;5034010;28;20049;-83
2022/01/19 09:07:52;;;;;;;71.07;29.00;;;4.00;99.90;;;;;;5014809;28;20404;-79
2022/01/19 09:10:17;;;;;;;71.80;30.02;;;4.50;99.90;;;;;;5033491;28;20100;-79
2022/01/19 09:12:44;;;;;;;65.15;28.92;;;4.00;99.90;;;;;;5033135;28;20049;-78
2022/01/19 09:15:10;;;;;;;71.30;29.35;;;4.10;99.90;;;;;;5015314;28;20088;-79
2022/01/19 09:17:36;;;;;;;72.15;30.33;;;4.10;99.90;;;;;;5032900;28;20117;-79
2022/01/19 09:20:05;;;;;;;76.25;30.30;;;4.80;99.90;;;;;;5033260;28;20041;-81
2022/01/19 09:22:31;;;;;;;70.20;30.42;;;4.20;99.90;;;;;;5015189;28;20045;-77
2022/01/19 09:24:57;;;;;;;70.82;29.50;;;4.20;99.90;;;;;;5014724;28;20052;-79
2022/01/19 09:27:23;;;;;;;79.68;32.38;;;4.20;99.90;;;;;;5032896;28;20057;-81
2022/01/19 09:29:48;;;;;;;70.45;29.33;;;4.30;99.90;;;;;;5014615;28;20080;-77
2022/01/19 09:32:14;;;;;;;71.93;29.92;;;4.30;99.90;;;;;;5032487;28;20029;-78
2022/01/19 09:34:43;;;;;;;65.97;29.33;;;4.30;99.90;;;;;;5032519;28;20116;-78
2022/01/19 09:37:09;;;;;;;76.70;30.92;;;5.00;99.90;;;;;;5032171;28;20083;-81
2022/01/19 09:39:35;;;;;;;68.57;27.10;;;4.30;99.90;;;;;;5032916;28;20045;-81
2022/01/19 09:42:01;;;;;;;78.97;32.33;;;4.30;99.90;;;;;;5014970;28;20045;-80
2022/01/19 09:44:29;;;;;;;76.15;30.13;;;4.30;99.90;;;;;;5032397;28;20053;-80
2022/01/19 09:46:55;;;;;;;79.32;32.45;;;4.30;99.90;;;;;;5020186;28;20038;-81
2022/01/19 09:49:22;;;;;;;73.15;30.77;;;4.30;99.90;;;;;;5027393;28;20103;-86
2022/01/19 09:51:49;;;;;;;76.57;32.30;;;4.30;99.90;;;;;;5026838;28;20476;-78
2022/01/19 09:54:20;;;;;;;74.63;31.27;;;4.30;99.90;;;;;;5012786;28;20100;-82
2022/01/19 09:56:47;;;;;;;73.47;32.03;;;4.30;99.90;;;;;;5031654;28;20514;-79
2022/01/19 09:59:15;;;;;;;74.28;32.03;;;4.30;99.90;;;;;;5031694;28;20053;-79
2022/01/19 10:02:04;;;;;;;76.00;29.95;;;4.30;99.90;;;;;;5013818;28;20045;-80
2022/01/19 10:04:41;;;;;;;72.20;33.08;;;4.40;99.90;;;;;;5031600;28;20049;-77
2022/01/19 10:07:10;;;;;;;72.22;31.38;;;4.40;99.90;;;;;;5031899;28;20053;-78
2022/01/19 10:09:51;;;;;;;73.88;31.98;;;4.40;99.90;;;;;;5031630;28;20045;-81
2022/01/19 10:18:16;;;;;;;69.80;31.15;;;4.40;99.90;;;;;;5031781;28;20451;-79
2022/01/19 10:20:43;;;;;;;73.38;32.42;;;4.40;99.90;;;;;;5031558;28;20079;-79
2022/01/19 10:23:33;;;;;;;63.80;29.75;;;4.40;99.90;;;;;;5031424;28;20037;-77
2022/01/19 10:26:00;;;;;;;69.60;29.92;;;4.40;99.90;;;;;;5031767;28;20073;-77
2022/01/19 10:28:27;;;;;;;75.47;33.00;;;4.40;99.90;;;;;;4997688;28;20052;-78
2022/01/19 10:30:52;;;;;;;79.97;33.55;;;4.40;99.90;;;;;;5031947;28;20482;-79
2022/01/19 10:33:19;;;;;;;69.03;31.58;;;4.40;99.90;;;;;;5013902;28;20057;-80
2022/01/19 10:35:47;;;;;;;77.65;34.17;;;4.40;99.90;;;;;;5014210;28;20061;-81
2022/01/19 10:38:26;;;;;;;73.00;33.47;;;5.10;99.90;;;;;;5031375;28;20060;-77
2022/01/19 10:40:55;;;;;;;77.90;32.90;;;4.40;99.90;;;;;;5031773;28;20056;-81
2022/01/19 10:43:25;;;;;;;82.63;35.67;;;4.40;99.90;;;;;;5013244;28;20049;-80
2022/01/19 10:45:51;;;;;;;80.57;35.00;;;4.40;99.90;;;;;;5031627;28;20045;-77
2022/01/19 10:48:37;;;;;;;86.15;35.08;;;4.40;99.90;;;;;;5013881;28;20129;-77
2022/01/19 10:51:19;;;;;;;73.75;33.63;;;4.50;99.90;;;;;;5013854;28;20049;-78
2022/01/19 10:54:06;;;;;;;66.90;30.33;;;4.50;99.90;;;;;;5014141;28;20037;-79
2022/01/19 10:56:32;;;;;;;76.13;34.03;;;4.50;99.90;;;;;;5030574;28;20057;-79
2022/01/19 10:59:03;;;;;;;75.20;32.80;;;4.50;99.90;;;;;;5030901;28;20503;-77
2022/01/19 11:01:51;;;;;;;73.18;34.10;;;4.60;99.90;;;;;;5030786;28;20438;-78
2022/01/19 11:04:27;;;;;;;69.55;33.10;;;4.60;99.90;;;;;;5012904;28;20132;-77
2022/01/19 11:07:01;;;;;;;76.18;33.72;;;4.60;99.90;;;;;;5031166;28;20132;-76
2022/01/19 11:09:29;;;;;;;73.65;32.92;;;4.60;99.90;;;;;;5030706;28;20148;-77
2022/01/19 11:11:58;;;;;;;76.00;34.47;;;5.00;99.90;;;;;;5013038;28;20050;-76
2022/01/19 11:14:25;;;;;;;85.07;33.90;;;4.70;99.90;;;;;;5012659;28;20038;-77
2022/01/19 11:16:51;;;;;;;75.28;36.60;;;4.70;99.90;;;;;;5030800;28;20076;-78
2022/01/19 11:19:18;;;;;;;73.60;31.55;;;4.70;99.90;;;;;;5030194;28;20073;-79
2022/01/19 11:22:19;;;;;;;75.93;35.40;;;4.70;99.90;;;;;;5030119;28;20045;-79
2022/01/19 11:25:02;;;;;;;75.22;34.55;;;4.70;99.90;;;;;;5012451;28;20045;-84
2022/01/19 11:27:39;;;;;;;80.50;35.50;;;4.70;99.90;;;;;;4996808;28;20052;-78
2022/01/19 11:30:25;;;;;;;67.20;33.95;;;4.70;99.90;;;;;;5029824;28;20073;-87
2022/01/19 11:33:16;;;;;;;77.50;37.17;;;5.10;99.90;;;;;;5030340;28;20095;-84
2022/01/19 11:35:47;;;;;;;89.72;37.35;;;4.90;99.90;;;;;;5012450;28;20056;-85
2022/01/19 11:38:36;;;;;;;76.00;35.55;;;4.90;99.90;;;;;;5013162;28;20397;-83
2022/01/19 11:41:35;;;;;;;83.88;36.65;;;5.20;99.90;;;;;;5029866;28;20049;-83
2022/01/19 11:44:01;;;;;;;79.57;36.33;;;5.00;99.90;;;;;;5030030;28;20045;-85
2022/01/19 11:46:33;;;;;;;71.70;30.92;;;5.00;99.90;;;;;;5030120;28;20041;-81
2022/01/19 11:49:04;;;;;;;77.38;33.53;;;5.10;99.90;;;;;;5029752;28;20049;-86
2022/01/19 11:51:39;;;;;;;71.53;33.83;;;5.10;99.90;;;;;;4995567;28;20061;-84
2022/01/19 11:54:21;;;;;;;;;;;5.30;99.90;;;;;;5030108;28;20045;-86
2022/01/19 11:56:58;;;;;;;73.13;28.13;;;5.20;99.90;;;;;;5012571;28;19928;-84
2022/01/19 11:59:27;;;;;;;89.45;36.83;;;5.20;99.90;;;;;;5012135;28;20053;-86
2022/01/19 12:01:53;;;;;;;70.93;32.22;;;5.30;99.90;;;;;;5012211;28;20054;-87
2022/01/19 12:04:21;;;;;;;70.07;33.03;;;5.30;99.90;;;;;;5029170;28;20053;-85
2022/01/19 12:06:47;;;;;;;75.97;35.42;;;5.30;99.90;;;;;;5029939;28;20041;-84
2022/01/19 12:09:14;;;;;;;81.70;33.80;;;5.40;99.90;;;;;;5029446;28;20045;-87
2022/01/19 12:11:53;;;;;;;74.88;33.92;;;5.30;99.90;;;;;;5029996;28;20179;-83
2022/01/19 12:14:33;;;;;;;80.90;35.60;;;5.30;99.90;;;;;;5029947;28;20386;-82
2022/01/19 12:19:29;;;;;;;75.65;32.63;;;5.20;99.90;;;;;;5029953;28;20555;-87
2022/01/19 12:22:05;;;;;;;73.80;31.48;;;5.20;99.90;;;;;;5029542;28;20042;-88
2022/01/19 12:24:56;;;;;;;69.88;30.05;;;5.20;99.90;;;;;;5029652;28;20049;-80
2022/01/19 12:27:25;;;;;;;75.60;33.00;;;5.10;99.90;;;;;;5025054;28;20045;-84
2022/01/19 12:30:03;;;;;;;77.22;33.80;;;5.10;99.90;;;;;;5029603;28;20045;-82
2022/01/19 12:32:36;;;;;;;66.50;29.33;;;5.10;99.90;;;;;;5033072;28;20374;-80
2022/01/19 12:35:05;;;;;;;76.72;33.25;;;5.10;99.90;;;;;;5015820;28;20092;-80
2022/01/19 12:37:37;;;;;;;74.68;32.45;;;5.50;99.90;;;;;;5016132;28;20060;-79
2022/01/19 12:40:02;;;;;;;76.43;29.35;;;5.10;99.90;;;;;;5015935;28;20048;-80
2022/01/19 12:42:45;;;;;;;78.72;33.45;;;5.10;99.90;;;;;;5033293;28;20045;-80
2022/01/19 12:45:27;;;;;;;66.45;31.23;;;5.10;99.90;;;;;;5015508;28;20045;-80
2022/01/19 12:48:00;;;;;;;78.22;33.05;;;5.10;99.90;;;;;;5014649;28;20570;-78
2022/01/19 12:50:29;;;;;;;74.50;33.35;;;5.10;99.90;;;;;;4995823;28;20123;-78
2022/01/19 12:53:21;;;;;;;73.95;34.10;;;5.10;99.90;;;;;;4998956;28;20053;-79
2022/01/19 12:55:51;;;;;;;71.90;33.95;;;5.10;99.90;;;;;;5032876;28;20044;-80
2022/01/19 12:58:37;;;;;;;75.47;33.00;;;5.40;99.90;;;;;;5032971;28;20079;-79
2022/01/19 13:01:09;;;;;;;69.07;30.77;;;5.20;99.90;;;;;;5032559;28;20085;-81
2022/01/19 13:03:40;;;;;;;69.55;32.17;;;5.20;99.90;;;;;;5015096;28;20072;-80
2022/01/19 13:06:10;;;;;;;73.55;32.67;;;5.20;99.90;;;;;;5033493;28;20034;-79
2022/01/19 13:08:52;;;;;;;76.75;32.33;;;5.30;99.90;;;;;;5015536;28;20052;-78
2022/01/19 13:11:38;;;;;;;74.30;31.35;;;5.30;99.90;;;;;;5033689;28;20372;-80
2022/01/19 13:14:12;;;;;;;69.97;30.58;;;5.20;99.90;;;;;;5000971;28;20053;-80
2022/01/19 13:16:45;;;;;;;70.30;30.67;;;5.30;99.90;;;;;;5015567;28;20053;-79
2022/01/19 13:19:13;;;;;;;69.40;30.35;;;5.30;99.90;;;;;;5015446;28;20079;-80
2022/01/19 13:21:40;;;;;;;73.75;32.75;;;5.70;99.90;;;;;;5033440;28;20084;-79
2022/01/19 13:24:22;;;;;;;68.63;30.80;;;5.30;99.90;;;;;;5033036;28;20523;-78
2022/01/19 13:26:54;;;;;;;57.90;29.73;;;5.30;99.90;;;;;;5033366;28;20061;-79
2022/01/19 13:29:26;;;;;;;67.43;28.63;;;5.80;99.90;;;;;;5015604;28;20037;-79
2022/01/19 13:32:12;;;;;;;65.65;29.77;;;5.30;99.90;;;;;;5033217;28;20052;-79
2022/01/19 13:35:02;;;;;;;63.03;27.23;;;5.30;99.90;;;;;;5032618;28;20041;-80
2022/01/19 13:37:41;;;;;;;61.55;27.48;;;5.30;99.90;;;;;;5033311;28;20439;-80
2022/01/19 13:40:17;;;;;;;66.28;29.23;;;5.30;99.90;;;;;;5015425;28;20045;-79
2022/01/19 13:43:04;;;;;;;60.42;27.17;;;5.30;99.90;;;;;;5032466;28;20144;-82
2022/01/19 13:45:48;;;;;;;56.00;27.67;;;5.30;99.90;;;;;;5032863;28;20400;-80
2022/01/19 13:48:29;;;;;;;53.70;27.00;;;5.30;99.90;;;;;;5032845;28;20052;-80
2022/01/19 13:51:04;;;;;;;59.92;24.55;;;5.30;99.90;;;;;;5032402;28;20116;-80
2022/01/19 13:53:33;;;;;;;64.50;26.52;;;5.30;99.90;;;;;;5015199;28;20046;-79
2022/01/19 13:56:01;;;;;;;54.53;23.98;;;6.00;99.90;;;;;;5032708;28;20397;-81
2022/01/19 13:58:35;;;;;;;56.25;22.52;;;5.30;99.90;;;;;;5013995;28;20056;-79
2022/01/19 14:01:05;;;;;;;57.33;21.90;;;5.30;99.90;;;;;;4998488;28;20056;-80
2022/01/19 14:03:47;;;;;;;46.42;22.70;;;5.30;99.90;;;;;;5031503;28;20599;-78
2022/01/19 14:06:28;;;;;;;52.33;21.23;;;5.30;99.90;;;;;;5031242;28;20048;-80
2022/01/19 14:09:04;;;;;;;40.85;20.92;;;5.30;99.90;;;;;;5025315;28;20128;-82
2022/01/19 14:11:30;;;;;;;52.08;19.88;;;5.30;99.90;;;;;;5014508;28;20055;-80